Stevensville, MD

5:23 PM EST on December 28, 2014 (GMT -0500)
APRSWXNET Stevensville MD US | Change Station
CLOSE
Current Station
Personal Weather Station
Location: Chester, MD
Elevation: 16 ft
Nearby Weather Stations

Elev 16 ft 38.96 °N, 76.31 °W | Updated 50 minutes ago

Rain
Rain
50 °F
Feels Like 50 °F
N
0
Wind Variable Wind from SW
Gusts 0.0 mph

Today
High -- | Low -- °F
--% Chance of Precip.
Yesterday
High -- | Low -- °F
Precip. -- in
7:23 AM 4:50 PM
First Quarter, 52% visible
Pressure 30.03 in
Visibility 10.0 miles
Clouds
Dew Point 46 °F
Humidity 86%
Rainfall 0.00 in
Snow Depth Not available.
UV Not available.
Pollen .10 out of 12
Air Quality Not available.
Flu Activity Not available.
METAR KW29 282218Z AUTO 00000KT 10SM RA 09/07 A3003 RMK AO1

More Conditions Fewer Conditions

Pressure 30.03 in
Visibility 10.0 miles
Clouds
Dew Point 46 °F
Humidity 86%
Rainfall 0.00 in
Snow Depth Not available.
UV Not available.
Pollen .10 out of 12
Air Quality Not available.
Flu Activity Not available.
METAR KW29 282218Z AUTO 00000KT 10SM RA 09/07 A3003 RMK AO1

More Conditions Fewer Conditions

10-Day Weather Forecast

Almanac

Astronomy

Dec. 28, 2014 Rise Set
Actual Time
Civil Twilight
Nautical Twilight
Astronomical Twilight
Moon
Length of Visible Light
Length of Day
Tomorrow will be .
, % of the Moon is Illuminated

Today's Extremes

State Highs State Lows

Community

WunderPhotos

Upload Photos

1,781,446 photos uploaded!

WunderBlogs® & News

Nearby

Air Quality

  Air Quality AQ Index Pollutant
Not available.

Snow Depth

Station Depth Elevation

Earthquake Activity

City Distance Mag. Time & Date
Minimum magnitude displayed is 2.5.

Coastal Water Temperatures

Place Temperature

Nearby Weather Stations